SÍGUENOS

APP INUMET

Disponible en Google Play

Productos aeronáuticos

  • SIGMET
  • METAR / SPECI
  • TAF
  • AIREP
  • Aviso de aeródromo
  • Pronárea
  • Carta superficie

Mensajes METAR de la última hora

SULS 182300Z 26008KT 9999 SCT030 14/02 Q1009
SUMU 182300Z 32004KT 9999 SCT046 13/03 Q1009 NOSIG

Mensajes METAR de la última hora - Internacionales


Argentina
SAAR 182300Z 18004KT CAVOK 20/02 Q1010
SABE 182300Z 26003KT 210V320 CAVOK 18/M03 Q1009
SACO 182300Z 04008KT CAVOK 18/02 Q1011
SAEZ 182300Z 29003KT CAVOK 14/02 Q1009
SAME 182300Z 05008KT CAVOK 25/M07 Q1009
Brasil
SBBR 182300Z 25005KT 9999 FEW020 SCT100 22/18 Q1015
SBFI 182300Z 21002KT CAVOK 20/19 Q1008
SBFL 182300Z 21008KT 9999 FEW020 BKN100 22/18 Q1006
SBGR 182300Z 00000KT 8000 TSRA BKN010 SCT015CB 20/20 Q1011
SBPA 182300Z 16011KT 130V220 9999 BKN040 21/15 Q1008
SBRJ 182300Z 16004KT 9999 FEW020 SCT030 BKN100 26/21 Q1005
SBSP 182300Z 09005KT 6000 RA VCTS BKN008 OVC028 FEW040CB 20/18 Q1012
SBGR 182240Z 13004KT 8000 -TSRA BKN009 FEW020CB 21/20 Q1011
Ecuador
SEQM 182300Z 01011KT 9999 FEW033 SCT300 16/10 Q1021 NOSIG RMK A3017
EEUU
KMIA 182253Z 03005KT 10SM SCT034 SCT060 26/19 A2993 RMK AO2 SLP137 T02560189
KDCA 182252Z 19010KT 10SM OVC140 13/06 A2959 RMK AO2 SLP021 T01280061
KIAD 182252Z 15007KT 10SM BKN085 OVC120 14/05 A2956 RMK AO2 SLP011 T01390050 $
KJFK 182251Z 20013KT 8SM -RA BKN060 BKN075 OVC090 11/09 A2965 RMK AO2 SLP038 P0002 T01110089
KLGA 182251Z 00000KT 9SM -RA BKN080 OVC090 10/06 A2963 RMK AO2 SLP032 P0003 T01000061
Francia
LFPO 182300Z 23009KT 9000 BKN016 BKN028 07/04 Q1021 TEMPO BKN012
LFPO 182230Z 23012KT 9999 BKN016 BKN028 07/04 Q1022 TEMPO BKN012
Venezuela
SVMI 182300Z /////KT 9999 SCT016 28/25 Q1006

* Datos extraidos del Text DataServer de la NOAA (NOAA TEXT DATA SERVER)

Instituto Uruguayo de Meteorología

Dr. Javier Barrios Amorín 1488 - CP 11200
Mesa Central (598) 1895 - Desde el interior 21895

Montevideo - Uruguay